createdAt,value
2023-02-07T00:00:59.992Z,-3.20
2023-02-07T00:02:03.258Z,-3.20
2023-02-07T00:03:06.475Z,-3.20
2023-02-07T00:04:09.490Z,-3.21
2023-02-07T00:05:13.333Z,-3.21
2023-02-07T00:06:19.774Z,-3.22
2023-02-07T00:07:22.715Z,-3.24
2023-02-07T00:08:25.764Z,-3.25
2023-02-07T00:09:28.991Z,-3.27
2023-02-07T00:10:32.640Z,-3.31
2023-02-07T00:11:38.600Z,-3.36
2023-02-07T00:12:41.999Z,-3.39
2023-02-07T00:13:45.553Z,-3.41
2023-02-07T00:14:48.524Z,-3.44
2023-02-07T00:15:51.638Z,-3.45
2023-02-07T00:16:54.830Z,-3.45
2023-02-07T00:17:58.036Z,-3.46
2023-02-07T00:19:01.181Z,-3.47
2023-02-07T00:20:05.246Z,-3.50
2023-02-07T00:21:11.712Z,-3.51
2023-02-07T00:22:14.803Z,-3.56
2023-02-07T00:23:17.860Z,-3.62
2023-02-07T00:24:21.014Z,-3.69
2023-02-07T00:25:24.186Z,-3.75
2023-02-07T00:26:27.675Z,-3.80
2023-02-07T00:27:30.763Z,-3.82
2023-02-07T00:28:34.345Z,-3.84
2023-02-07T00:29:38.131Z,-3.85
2023-02-07T00:30:42.188Z,-3.85
2023-02-07T00:31:45.368Z,-3.84
2023-02-07T00:32:49.689Z,-3.82
2023-02-07T00:33:56.011Z,-3.81
2023-02-07T00:34:59.193Z,-3.82
2023-02-07T00:36:05.002Z,-3.86
2023-02-07T00:37:09.299Z,-3.91
2023-02-07T00:38:12.371Z,-3.96
2023-02-07T00:39:16.738Z,-3.98
2023-02-07T00:40:19.884Z,-3.98
2023-02-07T00:41:23.113Z,-3.98
2023-02-07T00:42:26.270Z,-3.96
2023-02-07T00:43:30.411Z,-3.96
2023-02-07T00:44:33.416Z,-3.96
2023-02-07T00:45:36.981Z,-4.00
2023-02-07T00:46:40.357Z,-4.05
2023-02-07T00:47:43.532Z,-4.10
2023-02-07T00:48:46.614Z,-4.16
2023-02-07T00:49:49.754Z,-4.23
2023-02-07T00:50:52.835Z,-4.31
2023-02-07T00:51:55.972Z,-4.36
2023-02-07T00:52:59.027Z,-4.41
2023-02-07T00:54:02.521Z,-4.45
2023-02-07T00:55:05.996Z,-4.49
2023-02-07T00:56:09.563Z,-4.53
2023-02-07T00:57:12.731Z,-4.55
2023-02-07T00:58:16.088Z,-4.57
2023-02-07T00:59:19.266Z,-4.57
2023-02-07T01:00:22.413Z,-4.56
2023-02-07T01:01:27.033Z,-4.56
2023-02-07T01:02:31.163Z,-4.57
2023-02-07T01:03:34.276Z,-4.58
2023-02-07T01:04:37.480Z,-4.60
2023-02-07T01:05:41.047Z,-4.59
2023-02-07T01:06:44.199Z,-4.58
2023-02-07T01:07:47.357Z,-4.55
2023-02-07T01:08:50.510Z,-4.55
2023-02-07T01:09:53.674Z,-4.57
2023-02-07T01:10:57.028Z,-4.57
2023-02-07T01:12:00.206Z,-4.58
2023-02-07T01:13:03.156Z,-4.57
2023-02-07T01:14:07.309Z,-4.57
2023-02-07T01:15:10.520Z,-4.55
2023-02-07T01:16:26.534Z,-4.55
2023-02-07T01:17:29.719Z,-4.53
2023-02-07T01:18:32.756Z,-4.56
2023-02-07T01:19:35.779Z,-4.60
2023-02-07T01:20:39.063Z,-4.63
2023-02-07T01:21:42.130Z,-4.66
2023-02-07T01:22:45.434Z,-4.67
2023-02-07T01:23:48.590Z,-4.66
2023-02-07T01:24:54.468Z,-4.62
2023-02-07T01:25:57.631Z,-4.60
2023-02-07T01:27:01.526Z,-4.58
2023-02-07T01:28:04.844Z,-4.57
2023-02-07T01:29:08.381Z,-4.58
2023-02-07T01:30:12.854Z,-4.58
2023-02-07T01:31:16.193Z,-4.61
2023-02-07T01:32:19.235Z,-4.65
2023-02-07T01:33:22.799Z,-4.69
2023-02-07T01:34:25.998Z,-4.71
2023-02-07T01:35:29.080Z,-4.71
2023-02-07T01:36:32.264Z,-4.69
2023-02-07T01:37:35.541Z,-4.69
2023-02-07T01:38:38.688Z,-4.68
2023-02-07T01:39:42.350Z,-4.68
2023-02-07T01:40:45.436Z,-4.65
2023-02-07T01:41:48.595Z,-4.62
2023-02-07T01:42:51.749Z,-4.59
2023-02-07T01:43:58.476Z,-4.57
2023-02-07T01:45:05.124Z,-4.56
2023-02-07T01:46:08.729Z,-4.56
2023-02-07T01:47:15.198Z,-4.56
2023-02-07T01:48:28.486Z,-4.56
2023-02-07T01:49:35.228Z,-4.56
2023-02-07T01:50:40.700Z,-4.56
2023-02-07T01:51:50.241Z,-4.55
2023-02-07T01:52:54.136Z,-4.56
2023-02-07T01:54:00.745Z,-4.57
2023-02-07T01:55:08.132Z,-4.57
2023-02-07T01:56:29.425Z,-4.60
2023-02-07T01:57:22.409Z,-4.66
2023-02-07T01:58:27.492Z,-4.67
2023-02-07T01:59:33.730Z,-4.68
2023-02-07T02:00:37.325Z,-4.70
2023-02-07T02:01:41.650Z,-4.71
2023-02-07T02:02:44.922Z,-4.74
2023-02-07T02:03:51.961Z,-4.74
2023-02-07T02:04:55.374Z,-4.73
2023-02-07T02:05:58.743Z,-4.74
2023-02-07T02:07:02.101Z,-4.75
2023-02-07T02:08:24.505Z,-4.74
2023-02-07T02:09:28.993Z,-4.74
2023-02-07T02:10:44.637Z,-4.75
2023-02-07T02:12:03.367Z,-4.75
2023-02-07T02:13:27.743Z,-4.78
2023-02-07T02:14:54.129Z,-4.85
2023-02-07T02:16:03.877Z,-4.89
2023-02-07T02:17:22.414Z,-4.92
2023-02-07T02:19:02.210Z,-4.95
2023-02-07T02:20:29.692Z,-4.98
2023-02-07T02:21:54.363Z,-5.05
2023-02-07T02:23:22.210Z,-5.10
2023-02-07T02:24:40.590Z,-5.13
2023-02-07T02:25:57.216Z,-5.15
2023-02-07T02:27:20.324Z,-5.20
2023-02-07T02:28:27.047Z,-5.21
2023-02-07T02:30:05.330Z,-5.22
2023-02-07T02:31:28.576Z,-5.23
2023-02-07T02:32:56.390Z,-5.27
2023-02-07T02:34:15.400Z,-5.29
2023-02-07T02:35:23.937Z,-5.27
2023-02-07T02:36:33.290Z,-5.25
2023-02-07T02:37:58.676Z,-5.23
2023-02-07T02:39:11.288Z,-5.20
2023-02-07T02:40:53.277Z,-5.21
2023-02-07T02:42:24.970Z,-5.22
2023-02-07T02:43:37.429Z,-5.21
2023-02-07T02:45:02.699Z,-5.23
2023-02-07T02:46:15.283Z,-5.23
2023-02-07T02:47:20.559Z,-5.22
2023-02-07T02:48:24.436Z,-5.21
2023-02-07T02:49:30.000Z,-5.19
2023-02-07T02:50:34.882Z,-5.16
2023-02-07T02:51:38.049Z,-5.14
2023-02-07T02:52:50.745Z,-5.11
2023-02-07T02:53:56.973Z,-5.09
2023-02-07T02:55:01.954Z,-5.04
2023-02-07T02:56:14.168Z,-5.00
2023-02-07T02:57:38.977Z,-4.97
2023-02-07T02:59:02.288Z,-4.98
2023-02-07T03:00:26.817Z,-4.99
2023-02-07T03:01:52.752Z,-5.00
2023-02-07T03:03:14.799Z,-5.04
2023-02-07T03:04:30.802Z,-5.13
2023-02-07T03:05:43.351Z,-5.23
2023-02-07T03:07:01.842Z,-5.28
2023-02-07T03:08:08.773Z,-5.32
2023-02-07T03:09:39.513Z,-5.37
2023-02-07T03:11:01.484Z,-5.41
2023-02-07T03:12:17.110Z,-5.46
2023-02-07T03:13:29.600Z,-5.50
2023-02-07T03:14:45.518Z,-5.57
2023-02-07T03:16:20.889Z,-5.65
2023-02-07T03:17:30.585Z,-5.71
2023-02-07T03:18:49.153Z,-5.76
2023-02-07T03:20:07.694Z,-5.79
2023-02-07T03:21:23.471Z,-5.82
2023-02-07T03:22:29.747Z,-5.86
2023-02-07T03:23:33.938Z,-5.89
2023-02-07T03:24:40.575Z,-5.89
2023-02-07T03:25:44.897Z,-5.88
2023-02-07T03:26:49.974Z,-5.88
2023-02-07T03:27:55.704Z,-5.87
2023-02-07T03:29:00.371Z,-5.84
2023-02-07T03:30:07.195Z,-5.82
2023-02-07T03:31:13.813Z,-5.78
2023-02-07T03:32:19.661Z,-5.78
2023-02-07T03:33:25.346Z,-5.80
2023-02-07T03:34:37.721Z,-5.83
2023-02-07T03:35:44.455Z,-5.89
2023-02-07T03:36:57.178Z,-5.98
2023-02-07T03:38:02.667Z,-6.03
2023-02-07T03:39:06.020Z,-6.04
2023-02-07T03:40:11.007Z,-6.07
2023-02-07T03:41:20.329Z,-6.11
2023-02-07T03:42:32.734Z,-6.14
2023-02-07T03:43:38.683Z,-6.18
2023-02-07T03:44:42.677Z,-6.18
2023-02-07T03:45:45.750Z,-6.17
2023-02-07T03:46:50.460Z,-6.17
2023-02-07T03:47:53.510Z,-6.16
2023-02-07T03:48:56.587Z,-6.15
2023-02-07T03:49:59.666Z,-6.16
2023-02-07T03:51:02.817Z,-6.16
2023-02-07T03:52:06.042Z,-6.18
2023-02-07T03:53:09.223Z,-6.16
2023-02-07T03:54:12.641Z,-6.15
2023-02-07T03:55:15.842Z,-6.15
2023-02-07T03:56:19.554Z,-6.13
2023-02-07T03:57:22.624Z,-6.09
2023-02-07T03:58:25.779Z,-6.06
2023-02-07T03:59:29.237Z,-6.05
2023-02-07T04:00:32.626Z,-6.04
2023-02-07T04:02:47.766Z,-5.88
2023-02-07T04:03:50.919Z,-5.97
2023-02-07T04:04:54.204Z,-5.94
2023-02-07T04:05:57.155Z,-5.94
2023-02-07T04:07:00.207Z,-5.92
2023-02-07T04:08:03.647Z,-5.91
2023-02-07T04:09:07.120Z,-5.88
2023-02-07T04:10:11.584Z,-5.85
2023-02-07T04:11:14.831Z,-5.81
2023-02-07T04:12:17.912Z,-5.81
2023-02-07T04:13:20.997Z,-5.80
2023-02-07T04:14:24.245Z,-5.80
2023-02-07T04:15:27.325Z,-5.78
2023-02-07T04:16:30.335Z,-5.77
2023-02-07T04:17:33.454Z,-5.76
2023-02-07T04:18:36.406Z,-5.77
2023-02-07T04:19:39.446Z,-5.79
2023-02-07T04:20:42.523Z,-5.80
2023-02-07T04:21:45.610Z,-5.82
2023-02-07T04:22:48.774Z,-5.85
2023-02-07T04:23:51.823Z,-5.90
2023-02-07T04:24:54.882Z,-5.91
2023-02-07T04:25:58.163Z,-5.93
2023-02-07T04:27:01.313Z,-5.95
2023-02-07T04:28:04.408Z,-5.97
2023-02-07T04:29:07.413Z,-5.98
2023-02-07T04:30:11.580Z,-6.02
2023-02-07T04:31:14.540Z,-6.06
2023-02-07T04:32:17.706Z,-6.08
2023-02-07T04:33:21.021Z,-6.12
2023-02-07T04:34:24.121Z,-6.18
2023-02-07T04:35:27.196Z,-6.24
2023-02-07T04:36:30.763Z,-6.29
2023-02-07T04:37:33.828Z,-6.36
2023-02-07T04:38:36.867Z,-6.39
2023-02-07T04:39:39.830Z,-6.42
2023-02-07T04:40:42.785Z,-6.43
2023-02-07T04:41:45.938Z,-6.44
2023-02-07T04:42:48.991Z,-6.46
2023-02-07T04:43:52.251Z,-6.48
2023-02-07T04:44:55.335Z,-6.52
2023-02-07T04:45:58.449Z,-6.53
2023-02-07T04:47:01.491Z,-6.55
2023-02-07T04:48:04.920Z,-6.55
2023-02-07T04:49:08.008Z,-6.56
2023-02-07T04:50:11.814Z,-6.57
2023-02-07T04:51:15.606Z,-6.59
2023-02-07T04:52:18.597Z,-6.58
2023-02-07T04:53:21.857Z,-6.53
2023-02-07T04:54:24.942Z,-6.50
2023-02-07T04:55:28.027Z,-6.50
2023-02-07T04:56:31.094Z,-6.52
2023-02-07T04:57:34.241Z,-6.53
2023-02-07T04:58:37.210Z,-6.53
2023-02-07T04:59:40.383Z,-6.50
2023-02-07T05:00:43.445Z,-6.49
2023-02-07T05:01:46.649Z,-6.50
2023-02-07T05:02:49.735Z,-6.49
2023-02-07T05:03:52.796Z,-6.47
2023-02-07T05:04:55.874Z,-6.46
2023-02-07T05:05:58.923Z,-6.45
2023-02-07T05:07:01.888Z,-6.43
2023-02-07T05:08:05.170Z,-6.40
2023-02-07T05:09:08.248Z,-6.39
2023-02-07T05:10:12.028Z,-6.42
2023-02-07T05:11:15.078Z,-6.46
2023-02-07T05:12:18.179Z,-6.50
2023-02-07T05:13:21.430Z,-6.52
2023-02-07T05:14:24.564Z,-6.52
2023-02-07T05:15:28.023Z,-6.51
2023-02-07T05:16:31.210Z,-6.52
2023-02-07T05:17:34.466Z,-6.55
2023-02-07T05:18:37.561Z,-6.61
2023-02-07T05:19:40.635Z,-6.64
2023-02-07T05:20:44.123Z,-6.66
2023-02-07T05:21:47.193Z,-6.67
2023-02-07T05:22:50.383Z,-6.71
2023-02-07T05:23:53.525Z,-6.72
2023-02-07T05:24:56.596Z,-6.73
2023-02-07T05:25:59.558Z,-6.72
2023-02-07T05:27:02.773Z,-6.71
2023-02-07T05:28:05.878Z,-6.75
2023-02-07T05:29:09.026Z,-6.78
2023-02-07T05:30:13.119Z,-6.81
2023-02-07T05:31:16.515Z,-6.85
2023-02-07T05:32:38.965Z,-6.89
2023-02-07T05:33:42.112Z,-6.92
2023-02-07T05:34:45.178Z,-6.96
2023-02-07T05:35:48.222Z,-6.98
2023-02-07T05:36:51.355Z,-6.99
2023-02-07T05:37:54.397Z,-6.98
2023-02-07T05:38:57.436Z,-6.96
2023-02-07T05:40:00.397Z,-6.92
2023-02-07T05:41:03.457Z,-6.90
2023-02-07T05:42:06.419Z,-6.88
2023-02-07T05:43:10.694Z,-6.88
2023-02-07T05:44:13.850Z,-6.88
2023-02-07T05:45:16.911Z,-6.87
2023-02-07T05:46:20.155Z,-6.88
2023-02-07T05:47:23.252Z,-6.89
2023-02-07T05:48:26.312Z,-6.89
2023-02-07T05:49:29.364Z,-6.86
2023-02-07T05:50:32.394Z,-6.82
2023-02-07T05:51:41.624Z,-6.77
2023-02-07T05:52:45.084Z,-6.75
2023-02-07T05:53:48.222Z,-6.72
2023-02-07T05:54:51.413Z,-6.75
2023-02-07T05:55:54.459Z,-6.73
2023-02-07T05:56:57.515Z,-6.73
2023-02-07T05:58:00.705Z,-6.72
2023-02-07T05:59:03.778Z,-6.70
2023-02-07T06:00:09.146Z,-6.68
2023-02-07T06:01:14.611Z,-6.70
2023-02-07T06:02:17.758Z,-6.74
2023-02-07T06:03:20.888Z,-6.74
2023-02-07T06:04:23.934Z,-6.76
2023-02-07T06:05:28.657Z,-6.76
2023-02-07T06:06:31.649Z,-6.77
2023-02-07T06:07:34.804Z,-6.78
2023-02-07T06:08:37.847Z,-6.80
2023-02-07T06:09:41.036Z,-6.81
2023-02-07T06:10:44.213Z,-6.82
2023-02-07T06:11:47.174Z,-6.86
2023-02-07T06:12:50.239Z,-6.87
2023-02-07T06:13:53.287Z,-6.87
2023-02-07T06:14:56.248Z,-6.88
2023-02-07T06:15:59.241Z,-6.89
2023-02-07T06:17:02.343Z,-6.88
2023-02-07T06:18:05.605Z,-6.88
2023-02-07T06:19:10.662Z,-6.86
2023-02-07T06:20:14.862Z,-6.86
2023-02-07T06:21:18.028Z,-6.89
2023-02-07T06:22:21.205Z,-6.91
2023-02-07T06:23:24.165Z,-6.93
2023-02-07T06:24:27.448Z,-6.94
2023-02-07T06:25:30.668Z,-6.95
2023-02-07T06:26:33.936Z,-6.95
2023-02-07T06:27:38.390Z,-6.97
2023-02-07T06:28:41.388Z,-6.98
2023-02-07T06:29:44.475Z,-7.00
2023-02-07T06:30:47.747Z,-7.00
2023-02-07T06:31:50.867Z,-6.98
2023-02-07T06:32:53.934Z,-6.96
2023-02-07T06:33:57.009Z,-6.94
2023-02-07T06:35:00.101Z,-6.95
2023-02-07T06:36:03.484Z,-6.93
2023-02-07T06:37:06.571Z,-6.89
2023-02-07T06:38:09.640Z,-6.82
2023-02-07T06:39:13.025Z,-6.77
2023-02-07T06:40:17.026Z,-6.74
2023-02-07T06:41:20.321Z,-6.72
2023-02-07T06:42:23.381Z,-6.70
2023-02-07T06:43:26.545Z,-6.67
2023-02-07T06:44:29.644Z,-6.63
2023-02-07T06:45:32.768Z,-6.59
2023-02-07T06:46:35.952Z,-6.59
2023-02-07T06:47:39.266Z,-6.53
2023-02-07T06:48:42.450Z,-6.48
2023-02-07T06:49:45.622Z,-6.41
2023-02-07T06:50:51.424Z,-6.33
2023-02-07T06:51:54.788Z,-6.25
2023-02-07T06:53:01.434Z,-6.19
2023-02-07T06:54:06.422Z,-6.15
2023-02-07T06:55:09.631Z,-6.09
2023-02-07T06:56:12.995Z,-6.06
2023-02-07T06:57:16.188Z,-6.01
2023-02-07T06:58:19.337Z,-5.96
2023-02-07T06:59:22.515Z,-5.91
2023-02-07T07:00:25.743Z,-5.85
2023-02-07T07:01:28.951Z,-5.82
2023-02-07T07:02:32.144Z,-5.82
2023-02-07T07:03:35.276Z,-5.83
2023-02-07T07:04:38.235Z,-5.83
2023-02-07T07:05:41.871Z,-5.83
2023-02-07T07:06:44.738Z,-5.82
2023-02-07T07:07:48.703Z,-5.78
2023-02-07T07:08:51.911Z,-5.72
2023-02-07T07:09:54.951Z,-5.64
2023-02-07T07:10:58.013Z,-5.56
2023-02-07T07:12:00.999Z,-5.49
2023-02-07T07:13:04.184Z,-5.40
2023-02-07T07:14:07.238Z,-5.32
2023-02-07T07:15:10.312Z,-5.26
2023-02-07T07:16:13.730Z,-5.23
2023-02-07T07:17:16.756Z,-5.23
2023-02-07T07:18:19.939Z,-5.25
2023-02-07T07:19:23.011Z,-5.29
2023-02-07T07:20:26.054Z,-5.33
2023-02-07T07:21:29.023Z,-5.41
2023-02-07T07:22:32.120Z,-5.46
2023-02-07T07:23:35.478Z,-5.49
2023-02-07T07:24:38.572Z,-5.50
2023-02-07T07:25:41.654Z,-5.50
2023-02-07T07:26:49.872Z,-5.50
2023-02-07T07:27:49.878Z,-5.49
2023-02-07T07:28:54.721Z,-5.49
2023-02-07T07:29:57.799Z,-5.48
2023-02-07T07:31:06.537Z,-5.44
2023-02-07T07:32:19.910Z,-5.46
2023-02-07T07:33:17.555Z,-5.43
2023-02-07T07:34:20.585Z,-5.40
2023-02-07T07:35:24.558Z,-5.36
2023-02-07T07:36:27.949Z,-5.33
2023-02-07T07:37:31.444Z,-5.30
2023-02-07T07:38:34.901Z,-5.29
2023-02-07T07:39:38.063Z,-5.29
2023-02-07T07:40:41.430Z,-5.31
2023-02-07T07:41:44.862Z,-5.32
2023-02-07T07:42:48.508Z,-5.35
2023-02-07T07:43:54.572Z,-5.36
2023-02-07T07:44:57.768Z,-5.36
2023-02-07T07:46:01.758Z,-5.33
2023-02-07T07:47:04.987Z,-5.32
2023-02-07T07:48:08.278Z,-5.30
2023-02-07T07:49:11.559Z,-5.27
2023-02-07T07:50:14.962Z,-5.23
2023-02-07T07:51:18.226Z,-5.18
2023-02-07T07:52:21.397Z,-5.10
2023-02-07T07:53:24.706Z,-5.07
2023-02-07T07:54:27.730Z,-5.03
2023-02-07T07:55:30.840Z,-4.97
2023-02-07T07:56:34.919Z,-4.93
2023-02-07T07:57:38.173Z,-4.89
2023-02-07T07:58:41.245Z,-4.86
2023-02-07T07:59:44.422Z,-4.84
2023-02-07T08:00:47.748Z,-4.82
2023-02-07T08:01:51.501Z,-4.85
2023-02-07T08:02:54.579Z,-4.88
2023-02-07T08:03:57.893Z,-4.88
2023-02-07T08:05:01.538Z,-4.89
2023-02-07T08:06:05.627Z,-4.86
2023-02-07T08:07:08.804Z,-4.80
2023-02-07T08:08:12.093Z,-4.76
2023-02-07T08:09:15.199Z,-4.72
2023-02-07T08:10:18.407Z,-4.69
2023-02-07T08:11:21.497Z,-4.66
2023-02-07T08:12:24.715Z,-4.60
2023-02-07T08:13:32.329Z,-4.54
2023-02-07T08:14:33.144Z,-4.49
2023-02-07T08:15:36.499Z,-4.47
2023-02-07T08:16:39.659Z,-4.48
2023-02-07T08:17:42.730Z,-4.51
2023-02-07T08:18:46.789Z,-4.55
2023-02-07T08:19:50.022Z,-4.57
2023-02-07T08:20:53.093Z,-4.54
2023-02-07T08:21:56.189Z,-4.51
2023-02-07T08:22:59.354Z,-4.46
2023-02-07T08:24:02.652Z,-4.39
2023-02-07T08:25:06.691Z,-4.33
2023-02-07T08:26:11.097Z,-4.28
2023-02-07T08:27:14.266Z,-4.19
2023-02-07T08:28:18.694Z,-4.15
2023-02-07T08:29:21.937Z,-4.12
2023-02-07T08:30:25.403Z,-4.08
2023-02-07T08:31:28.636Z,-4.07
2023-02-07T08:32:31.964Z,-4.04
2023-02-07T08:33:35.040Z,-4.00
2023-02-07T08:34:38.232Z,-3.92
2023-02-07T08:35:41.495Z,-3.83
2023-02-07T08:36:44.805Z,-3.74
2023-02-07T08:37:47.876Z,-3.67
2023-02-07T08:38:51.475Z,-3.62
2023-02-07T08:39:55.303Z,-3.59
2023-02-07T08:40:58.557Z,-3.59
2023-02-07T08:42:02.753Z,-3.57
2023-02-07T08:43:07.631Z,-3.62
2023-02-07T08:44:10.701Z,-3.67
2023-02-07T08:45:15.487Z,-3.73
2023-02-07T08:46:18.950Z,-3.75
2023-02-07T08:47:22.103Z,-3.76
2023-02-07T08:48:25.136Z,-3.77
2023-02-07T08:49:28.439Z,-3.82
2023-02-07T08:50:31.745Z,-3.89
2023-02-07T08:51:34.987Z,-3.95
2023-02-07T08:52:38.322Z,-4.02
2023-02-07T08:53:41.414Z,-4.07
2023-02-07T08:54:44.497Z,-4.12
2023-02-07T08:55:47.881Z,-4.16
2023-02-07T08:56:51.448Z,-4.22
2023-02-07T08:57:54.661Z,-4.25
2023-02-07T08:58:57.912Z,-4.29
2023-02-07T09:00:01.448Z,-4.33
2023-02-07T09:01:06.615Z,-4.36
2023-02-07T09:02:11.962Z,-4.41
2023-02-07T09:03:15.334Z,-4.43
2023-02-07T09:04:18.411Z,-4.43
2023-02-07T09:05:21.604Z,-4.42
2023-02-07T09:06:25.614Z,-4.39
2023-02-07T09:07:28.686Z,-4.39
2023-02-07T09:08:31.639Z,-4.38
2023-02-07T09:09:34.790Z,-4.39
2023-02-07T09:10:38.706Z,-4.36
2023-02-07T09:11:42.218Z,-4.35
2023-02-07T09:12:45.403Z,-4.35
2023-02-07T09:13:48.814Z,-4.33
2023-02-07T09:14:52.050Z,-4.31
2023-02-07T09:15:58.248Z,-4.32
2023-02-07T09:17:01.470Z,-4.34
2023-02-07T09:18:04.626Z,-4.36
2023-02-07T09:19:08.031Z,-4.38
2023-02-07T09:20:12.306Z,-4.39
2023-02-07T09:21:15.789Z,-4.38
2023-02-07T09:22:18.821Z,-4.34
2023-02-07T09:23:23.417Z,-4.31
2023-02-07T09:24:26.822Z,-4.29
2023-02-07T09:25:30.008Z,-4.27
2023-02-07T09:26:34.761Z,-4.23
2023-02-07T09:27:37.891Z,-4.20
2023-02-07T09:28:41.052Z,-4.19
2023-02-07T09:29:44.222Z,-4.19
2023-02-07T09:30:48.401Z,-4.24
2023-02-07T09:31:51.928Z,-4.26
2023-02-07T09:32:57.686Z,-4.27
2023-02-07T09:34:02.125Z,-4.28
2023-02-07T09:35:07.061Z,-4.28
2023-02-07T09:36:25.196Z,-4.25
2023-02-07T09:37:28.787Z,-4.21
2023-02-07T09:38:32.903Z,-4.19
2023-02-07T09:39:38.426Z,-4.18
2023-02-07T09:40:43.151Z,-4.18
2023-02-07T09:42:21.616Z,-4.16
2023-02-07T09:43:29.491Z,-4.15
2023-02-07T09:44:57.886Z,-4.12
2023-02-07T09:46:05.453Z,-4.13
2023-02-07T09:47:23.046Z,-4.15
2023-02-07T09:48:32.644Z,-4.15
2023-02-07T09:49:39.489Z,-4.12
2023-02-07T09:50:46.235Z,-4.12
2023-02-07T09:51:50.611Z,-4.09
2023-02-07T09:52:57.151Z,-4.10
2023-02-07T09:54:03.835Z,-4.09
2023-02-07T09:55:22.906Z,-4.09
2023-02-07T09:56:28.646Z,-4.10
2023-02-07T09:57:41.525Z,-4.11
2023-02-07T09:58:55.224Z,-4.11
2023-02-07T10:00:04.948Z,-4.09
2023-02-07T10:01:23.522Z,-4.06
2023-02-07T10:02:36.178Z,-4.03
2023-02-07T10:03:45.872Z,-3.99
2023-02-07T10:04:51.469Z,-3.95
2023-02-07T10:06:17.888Z,-3.91
2023-02-07T10:07:12.761Z,-3.87
2023-02-07T10:08:18.462Z,-3.81
2023-02-07T10:09:40.386Z,-3.75
2023-02-07T10:10:46.944Z,-3.70
2023-02-07T10:12:02.565Z,-3.66
2023-02-07T10:13:26.164Z,-3.66
2023-02-07T10:14:56.890Z,-3.67
2023-02-07T10:16:01.591Z,-3.69
2023-02-07T10:17:16.475Z,-3.72
2023-02-07T10:18:29.714Z,-3.75
2023-02-07T10:19:42.628Z,-3.76
2023-02-07T10:20:55.577Z,-3.76
2023-02-07T10:22:11.028Z,-3.75
2023-02-07T10:23:29.841Z,-3.74
2023-02-07T10:24:58.144Z,-3.73
2023-02-07T10:31:05.025Z,-3.87
2023-02-07T10:32:17.533Z,-4.00
2023-02-07T10:33:24.313Z,-4.03
2023-02-07T10:34:39.843Z,-4.03
2023-02-07T10:35:45.681Z,-4.01
2023-02-07T10:36:51.824Z,-3.99
2023-02-07T10:37:58.422Z,-3.96
2023-02-07T10:39:09.447Z,-3.94
2023-02-07T10:40:13.973Z,-3.92
2023-02-07T10:41:23.702Z,-3.88
2023-02-07T10:42:28.758Z,-3.83
2023-02-07T10:43:34.088Z,-3.78
2023-02-07T10:44:37.100Z,-3.73
2023-02-07T10:45:41.995Z,-3.68
2023-02-07T10:48:48.517Z,-3.65
2023-02-07T10:49:55.377Z,-3.60
2023-02-07T10:51:02.270Z,-3.60
2023-02-07T10:52:14.984Z,-3.59
2023-02-07T10:53:49.094Z,-3.58
2023-02-07T10:54:55.816Z,-3.60
2023-02-07T10:55:59.011Z,-3.61
2023-02-07T10:57:03.051Z,-3.64
2023-02-07T10:58:21.252Z,-3.65
2023-02-07T10:59:30.558Z,-3.65
2023-02-07T11:00:34.334Z,-3.63
2023-02-07T11:01:39.356Z,-3.61
2023-02-07T11:02:54.340Z,-3.58
2023-02-07T11:03:58.393Z,-3.54
2023-02-07T11:05:16.969Z,-3.51
2023-02-07T14:01:33.057Z,-4.08
2023-02-07T14:02:45.198Z,-4.09
2023-02-07T14:05:32.769Z,-3.84
2023-02-07T14:06:42.003Z,-3.93
2023-02-07T14:07:54.920Z,-3.91
2023-02-07T14:09:01.637Z,-3.88
2023-02-07T14:10:06.187Z,-3.86
2023-02-07T14:11:21.735Z,-3.84
2023-02-07T14:12:40.240Z,-3.83
2023-02-07T14:13:43.610Z,-3.80
2023-02-07T14:15:00.622Z,-3.76
2023-02-07T14:16:01.569Z,-3.74
2023-02-07T14:17:07.474Z,-3.72
2023-02-07T14:18:40.174Z,-3.69
2023-02-07T14:19:48.168Z,-3.67
2023-02-07T14:21:00.807Z,-3.66
2023-02-07T14:22:31.721Z,-3.66
2023-02-07T14:23:48.589Z,-3.63
2023-02-07T14:25:07.152Z,-3.62
2023-02-07T14:26:39.909Z,-3.68
2023-02-07T14:27:52.637Z,-3.68
2023-02-07T14:30:16.637Z,-3.62
2023-02-07T14:31:23.259Z,-3.73
2023-02-07T14:32:41.640Z,-3.73
2023-02-07T14:33:48.265Z,-3.73
2023-02-07T14:35:03.836Z,-3.73
2023-02-07T14:36:16.814Z,-3.73
2023-02-07T14:37:23.347Z,-3.72
2023-02-07T14:38:39.241Z,-3.72
2023-02-07T14:39:42.311Z,-3.70
2023-02-07T14:40:54.414Z,-3.72
2023-02-07T14:42:03.007Z,-3.71
2023-02-07T14:43:09.527Z,-3.71
2023-02-07T14:44:28.291Z,-3.68
2023-02-07T14:45:34.682Z,-3.67
2023-02-07T14:46:50.691Z,-3.66
2023-02-07T14:47:53.750Z,-3.66
2023-02-07T14:49:25.540Z,-3.67
2023-02-07T14:50:30.092Z,-3.67
2023-02-07T14:51:54.919Z,-3.67
2023-02-07T14:53:00.000Z,-3.68
2023-02-07T14:54:09.440Z,-3.68
2023-02-07T14:55:21.900Z,-3.70
2023-02-07T14:56:44.194Z,-3.72
2023-02-07T14:58:02.767Z,-3.73
2023-02-07T14:59:08.202Z,-3.74
2023-02-07T15:00:15.892Z,-3.77
2023-02-07T15:01:20.861Z,-3.76
2023-02-07T15:02:42.446Z,-3.76
2023-02-07T15:03:45.646Z,-3.76
2023-02-07T15:04:48.788Z,-3.77
2023-02-07T15:05:55.273Z,-3.77
2023-02-07T15:06:59.400Z,-3.77
2023-02-07T15:08:18.359Z,-3.75
2023-02-07T15:09:27.432Z,-3.73
2023-02-07T15:10:33.861Z,-3.73
2023-02-07T15:11:36.997Z,-3.74
2023-02-07T15:12:43.118Z,-3.73
2023-02-07T15:13:49.163Z,-3.73
2023-02-07T15:14:56.455Z,-3.73
2023-02-07T15:16:18.247Z,-3.74
2023-02-07T15:17:24.597Z,-3.74
2023-02-07T15:18:31.524Z,-3.74
2023-02-07T15:19:37.478Z,-3.74
2023-02-07T15:20:41.259Z,-3.74
2023-02-07T15:21:49.087Z,-3.71
2023-02-07T15:22:55.047Z,-3.72
2023-02-07T15:24:04.755Z,-3.71
2023-02-07T15:25:11.481Z,-3.72
2023-02-07T15:26:18.400Z,-3.74
2023-02-07T15:27:27.660Z,-3.75
2023-02-07T15:28:31.873Z,-3.75
2023-02-07T15:29:37.485Z,-3.74
2023-02-07T15:30:41.243Z,-3.73
2023-02-07T15:31:44.812Z,-3.73
2023-02-07T15:32:48.202Z,-3.72
2023-02-07T15:33:54.850Z,-3.70
2023-02-07T15:35:00.545Z,-3.70
2023-02-07T15:36:09.185Z,-3.67
2023-02-07T15:37:22.589Z,-3.66
2023-02-07T15:38:27.490Z,-3.66
2023-02-07T15:39:30.700Z,-3.67
2023-02-07T15:40:33.928Z,-3.67
2023-02-07T15:41:37.113Z,-3.65
2023-02-07T15:42:57.835Z,-3.65
2023-02-07T15:44:04.372Z,-3.64
2023-02-07T15:45:19.550Z,-3.65
2023-02-07T15:46:15.355Z,-3.67
2023-02-07T15:47:35.639Z,-3.72
2023-02-07T15:48:48.209Z,-3.73
2023-02-07T15:50:00.935Z,-3.77
2023-02-07T15:51:05.552Z,-3.81
2023-02-07T15:52:18.201Z,-3.83
2023-02-07T15:53:24.750Z,-3.87
2023-02-07T15:54:28.655Z,-3.89
2023-02-07T15:55:44.012Z,-3.92
2023-02-07T15:56:50.665Z,-3.93
2023-02-07T15:57:54.002Z,-3.96
2023-02-07T15:59:02.516Z,-3.97
2023-02-07T16:00:24.432Z,-3.98
2023-02-07T16:01:29.637Z,-4.02
2023-02-07T16:02:35.682Z,-4.04
2023-02-07T16:03:46.984Z,-4.05
2023-02-07T16:04:50.308Z,-4.08
2023-02-07T16:06:03.463Z,-4.11
2023-02-07T16:07:10.228Z,-4.11
2023-02-07T16:08:34.861Z,-4.11
2023-02-07T16:09:41.499Z,-4.11
2023-02-07T16:10:44.755Z,-4.11
2023-02-07T16:11:47.799Z,-4.10
2023-02-07T16:13:02.862Z,-4.12
2023-02-07T16:14:24.969Z,-4.13
2023-02-07T16:15:31.730Z,-4.17
2023-02-07T16:16:40.570Z,-4.22
2023-02-07T16:17:43.885Z,-4.24
2023-02-07T16:18:50.386Z,-4.27
2023-02-07T16:19:53.569Z,-4.28
2023-02-07T16:20:56.831Z,-4.29
2023-02-07T16:22:07.350Z,-4.31
2023-02-07T16:23:13.187Z,-4.32
2023-02-07T16:24:19.794Z,-4.33
2023-02-07T16:25:29.359Z,-4.32
2023-02-07T16:26:32.595Z,-4.32
2023-02-07T16:27:38.626Z,-4.32
2023-02-07T16:28:42.457Z,-4.32
2023-02-07T16:29:46.341Z,-4.32
2023-02-07T16:30:50.187Z,-4.32
2023-02-07T16:31:54.971Z,-4.31
2023-02-07T16:32:58.134Z,-4.31
2023-02-07T16:34:01.134Z,-4.31
2023-02-07T16:35:07.982Z,-4.31
2023-02-07T16:36:16.997Z,-4.32
2023-02-07T16:37:20.102Z,-4.32
2023-02-07T16:38:23.033Z,-4.33
2023-02-07T16:39:26.340Z,-4.33
2023-02-07T16:40:29.681Z,-4.36
2023-02-07T16:41:35.811Z,-4.38
2023-02-07T16:42:39.372Z,-4.40
2023-02-07T16:43:42.414Z,-4.42
2023-02-07T16:44:46.424Z,-4.42
2023-02-07T16:45:49.704Z,-4.42
2023-02-07T16:46:52.861Z,-4.40
2023-02-07T16:47:58.565Z,-4.39
2023-02-07T16:49:02.172Z,-4.37
2023-02-07T16:50:08.941Z,-4.37
2023-02-07T16:51:12.214Z,-4.37
2023-02-07T16:52:15.462Z,-4.37
2023-02-07T16:53:18.697Z,-4.37
2023-02-07T16:54:22.307Z,-4.36
2023-02-07T16:55:28.239Z,-4.36
2023-02-07T16:56:32.292Z,-4.38
2023-02-07T16:57:38.064Z,-4.39
2023-02-07T16:58:42.148Z,-4.41
2023-02-07T16:59:45.518Z,-4.42
2023-02-07T17:00:48.757Z,-4.43
2023-02-07T17:01:53.637Z,-4.44
2023-02-07T17:02:58.323Z,-4.45
2023-02-07T17:04:01.538Z,-4.46
2023-02-07T17:05:05.347Z,-4.45
2023-02-07T17:06:15.068Z,-4.45
2023-02-07T17:07:18.274Z,-4.48
2023-02-07T17:08:24.765Z,-4.50
2023-02-07T17:09:28.028Z,-4.51
2023-02-07T17:10:34.225Z,-4.52
2023-02-07T17:11:38.403Z,-4.53
2023-02-07T17:12:42.629Z,-4.54
2023-02-07T17:13:45.991Z,-4.55
2023-02-07T17:14:49.173Z,-4.53
2023-02-07T17:15:52.504Z,-4.52
2023-02-07T17:16:56.284Z,-4.53
2023-02-07T17:17:59.636Z,-4.54
2023-02-07T17:19:02.998Z,-4.55
2023-02-07T17:20:28.235Z,-4.56
2023-02-07T17:21:31.425Z,-4.58
2023-02-07T17:22:34.532Z,-4.61
2023-02-07T17:23:37.893Z,-4.63